Time;durP1;ratioP1;P1;durP2;ratioP2;P2;SDS_P1;SDS_P2;PMS_P1;PMS_P2;Temp;Humidity;BMP_temperature;BMP_pressure;BME280_temperature;BME280_humidity;BME280_pressure;Samples;Min_cycle;Max_cycle;Signal;HPM_P1;HPM_P2
2023/08/09 00:02:19;;;;;;;9.25;2.15;;;;;;;;;;5017901;28;20061;-71
2023/08/09 00:04:45;;;;;;;7.93;2.20;;;;;;;;;;5019268;28;20502;-70
2023/08/09 00:07:11;;;;;;;8.15;2.47;;;;;;;;;;5002619;28;20548;-70
2023/08/09 00:09:37;;;;;;;6.95;2.00;;;;;;;;;;5022764;28;20029;-70
2023/08/09 00:12:04;;;;;;;7.75;2.33;;;;;;;;;;5002417;28;20033;-70
2023/08/09 00:14:30;;;;;;;8.27;2.28;;;;;;;;;;5020622;28;20024;-71
2023/08/09 00:16:56;;;;;;;8.63;2.35;;;;;;;;;;5017756;28;20419;-71
2023/08/09 00:19:23;;;;;;;7.90;2.20;;;;;;;;;;5005784;28;20021;-69
2023/08/09 00:21:49;;;;;;;8.73;2.40;;;;;;;;;;5002403;28;20268;-71
2023/08/09 00:24:16;;;;;;;7.65;2.03;;;;;;;;;;5022875;28;20749;-69
2023/08/09 00:26:42;;;;;;;7.88;2.25;;;;;;;;;;5024650;28;20032;-69
2023/08/09 00:29:08;;;;;;;8.10;2.38;;;;;;;;;;5019654;28;20140;-70
2023/08/09 00:31:34;;;;;;;8.73;2.10;;;;;;;;;;5026631;28;20052;-69
2023/08/09 00:34:01;;;;;;;7.50;1.90;;;;;;;;;;5022107;28;20074;-70
2023/08/09 00:36:27;;;;;;;5.82;1.67;;;;;;;;;;5021748;28;20048;-70
2023/08/09 00:38:53;;;;;;;6.82;2.13;;;;;;;;;;5022014;28;20039;-70
2023/08/09 00:41:20;;;;;;;7.13;2.08;;;;;;;;;;5020989;28;20087;-70
2023/08/09 00:43:46;;;;;;;8.80;2.17;;;;;;;;;;5025123;28;20738;-69
2023/08/09 00:46:12;;;;;;;7.88;2.20;;;;;;;;;;5019425;28;20128;-69
2023/08/09 00:48:38;;;;;;;8.52;2.17;;;;;;;;;;5016276;28;20452;-71
2023/08/09 00:51:05;;;;;;;6.05;1.83;;;;;;;;;;5001472;28;20037;-71
2023/08/09 00:53:31;;;;;;;8.50;2.35;;;;;;;;;;5022150;28;20104;-70
2023/08/09 00:55:57;;;;;;;7.03;2.03;;;;;;;;;;5020496;28;20454;-70
2023/08/09 00:58:24;;;;;;;10.32;2.40;;;;;;;;;;5020638;28;20459;-71
2023/08/09 01:00:50;;;;;;;7.88;1.85;;;;;;;;;;5019724;28;20439;-71
2023/08/09 01:03:16;;;;;;;7.15;2.15;;;;;;;;;;5020444;28;20029;-70
2023/08/09 01:05:55;;;;;;;8.38;2.40;;;;;;;;;;5001671;28;20420;-70
2023/08/09 01:08:28;;;;;;;7.03;2.13;;;;;;;;;;5021521;28;20136;-70
2023/08/09 01:11:18;;;;;;;7.72;2.30;;;;;;;;;;5019428;28;20033;-71
2023/08/09 01:13:44;;;;;;;7.60;1.98;;;;;;;;;;5012159;28;20467;-70
2023/08/09 01:16:11;;;;;;;7.30;2.00;;;;;;;;;;5016775;28;20084;-70
2023/08/09 01:18:37;;;;;;;8.23;2.08;;;;;;;;;;5020672;28;20036;-70
2023/08/09 01:21:04;;;;;;;7.13;1.88;;;;;;;;;;5017898;28;20050;-70
2023/08/09 01:23:33;;;;;;;7.60;2.10;;;;;;;;;;5018217;28;20452;-70
2023/08/09 01:25:59;;;;;;;8.18;1.98;;;;;;;;;;5020570;28;20029;-70
2023/08/09 01:28:25;;;;;;;10.05;1.98;;;;;;;;;;5002881;28;20025;-70
2023/08/09 01:30:51;;;;;;;8.57;2.22;;;;;;;;;;5023299;28;20130;-69
2023/08/09 01:33:17;;;;;;;7.43;1.92;;;;;;;;;;5022605;28;20293;-68
2023/08/09 01:36:00;;;;;;;6.97;1.90;;;;;;;;;;5016766;28;20041;-71
2023/08/09 01:38:30;;;;;;;8.60;1.92;;;;;;;;;;5017798;28;20085;-71
2023/08/09 01:40:56;;;;;;;9.45;2.35;;;;;;;;;;5015883;28;20071;-71
2023/08/09 01:43:23;;;;;;;8.70;2.28;;;;;;;;;;5019688;28;20025;-71
2023/08/09 01:45:49;;;;;;;8.30;2.20;;;;;;;;;;5019899;28;20182;-71
2023/08/09 01:48:16;;;;;;;8.45;2.53;;;;;;;;;;5016710;28;20372;-69
2023/08/09 01:50:44;;;;;;;7.97;2.25;;;;;;;;;;5018662;28;20036;-71
2023/08/09 01:53:11;;;;;;;7.88;2.13;;;;;;;;;;5018279;28;21589;-71
2023/08/09 01:55:38;;;;;;;8.60;2.20;;;;;;;;;;5015629;28;20487;-70
2023/08/09 01:58:04;;;;;;;8.25;2.22;;;;;;;;;;5015064;28;20103;-70
2023/08/09 02:00:30;;;;;;;7.88;2.38;;;;;;;;;;5020159;28;20179;-71
2023/08/09 02:02:58;;;;;;;8.02;1.88;;;;;;;;;;5019301;28;20033;-69
2023/08/09 02:05:24;;;;;;;7.38;1.90;;;;;;;;;;5018692;28;20055;-69
2023/08/09 02:07:51;;;;;;;7.85;2.20;;;;;;;;;;5018003;28;20415;-71
2023/08/09 02:10:17;;;;;;;8.85;2.08;;;;;;;;;;5004205;28;20037;-69
2023/08/09 02:12:47;;;;;;;8.98;1.88;;;;;;;;;;5019378;28;20037;-70
2023/08/09 02:15:15;;;;;;;6.90;1.90;;;;;;;;;;5001739;28;20356;-70
2023/08/09 02:17:42;;;;;;;9.32;2.47;;;;;;;;;;5021479;28;20032;-70
2023/08/09 02:20:09;;;;;;;9.48;2.78;;;;;;;;;;5015267;28;20381;-69
2023/08/09 02:22:39;;;;;;;8.48;2.17;;;;;;;;;;5018827;28;20622;-71
2023/08/09 02:25:07;;;;;;;6.97;2.10;;;;;;;;;;5015937;28;20039;-71
2023/08/09 02:27:33;;;;;;;7.43;1.90;;;;;;;;;;5001562;28;20029;-71
2023/08/09 02:30:03;;;;;;;8.07;2.30;;;;;;;;;;4998124;28;20072;-70
2023/08/09 02:32:29;;;;;;;6.78;2.10;;;;;;;;;;5004656;28;20029;-73
2023/08/09 02:34:55;;;;;;;7.85;2.30;;;;;;;;;;4980297;28;20047;-72
2023/08/09 02:37:22;;;;;;;8.93;2.33;;;;;;;;;;4984261;28;20345;-71
2023/08/09 02:39:48;;;;;;;8.52;1.90;;;;;;;;;;4980697;28;20046;-71
2023/08/09 02:42:16;;;;;;;8.50;2.00;;;;;;;;;;4974907;28;20089;-70
2023/08/09 02:44:42;;;;;;;7.25;2.05;;;;;;;;;;4982616;28;20076;-71
2023/08/09 02:47:08;;;;;;;6.35;1.95;;;;;;;;;;4982417;28;20034;-71
2023/08/09 02:49:35;;;;;;;8.30;2.30;;;;;;;;;;4981154;28;20512;-70
2023/08/09 02:52:01;;;;;;;8.05;2.00;;;;;;;;;;4977304;28;20116;-71
2023/08/09 02:54:27;;;;;;;11.50;2.30;;;;;;;;;;4978342;28;20412;-69
2023/08/09 02:56:53;;;;;;;8.77;2.50;;;;;;;;;;4992009;28;20569;-70
2023/08/09 02:59:19;;;;;;;7.03;1.95;;;;;;;;;;4975058;28;20022;-69
2023/08/09 03:01:45;;;;;;;7.75;2.13;;;;;;;;;;4978653;28;20034;-70
2023/08/09 03:04:11;;;;;;;8.68;2.30;;;;;;;;;;4993061;28;20453;-69
2023/08/09 03:06:37;;;;;;;6.88;1.75;;;;;;;;;;4981517;28;20133;-69
2023/08/09 03:09:04;;;;;;;8.63;2.30;;;;;;;;;;4976891;28;20057;-69
2023/08/09 03:11:30;;;;;;;10.38;2.10;;;;;;;;;;4977659;28;20098;-70
2023/08/09 03:13:56;;;;;;;10.57;2.25;;;;;;;;;;4969907;28;20061;-70
2023/08/09 03:16:23;;;;;;;8.93;2.40;;;;;;;;;;4976490;28;20733;-70
2023/08/09 03:18:49;;;;;;;10.90;2.75;;;;;;;;;;4997626;28;20026;-69
2023/08/09 03:21:15;;;;;;;9.90;2.70;;;;;;;;;;4975392;28;20069;-70
2023/08/09 03:23:41;;;;;;;8.27;2.47;;;;;;;;;;4975352;28;20358;-69
2023/08/09 03:26:07;;;;;;;7.95;2.15;;;;;;;;;;4975525;28;20035;-69
2023/08/09 03:28:34;;;;;;;7.65;2.30;;;;;;;;;;4972871;28;20074;-69
2023/08/09 03:31:00;;;;;;;8.60;2.33;;;;;;;;;;4973644;28;20719;-69
2023/08/09 03:33:26;;;;;;;8.45;2.30;;;;;;;;;;4982896;28;20147;-72
2023/08/09 03:35:53;;;;;;;7.95;2.65;;;;;;;;;;5014518;28;20796;-69
2023/08/09 03:38:19;;;;;;;7.30;2.20;;;;;;;;;;5016375;28;20783;-71
2023/08/09 03:40:45;;;;;;;9.57;2.38;;;;;;;;;;5016721;28;20037;-69
2023/08/09 03:43:11;;;;;;;9.63;2.13;;;;;;;;;;5016274;28;20310;-69
2023/08/09 03:45:37;;;;;;;8.10;2.00;;;;;;;;;;5017304;28;20290;-70
2023/08/09 03:48:04;;;;;;;7.32;2.05;;;;;;;;;;5018090;28;20033;-69
2023/08/09 03:50:30;;;;;;;8.43;1.90;;;;;;;;;;5000851;28;20030;-69
2023/08/09 03:52:56;;;;;;;9.80;2.05;;;;;;;;;;5017516;28;20550;-69
2023/08/09 03:55:22;;;;;;;7.63;2.28;;;;;;;;;;5019435;28;20230;-69
2023/08/09 03:57:48;;;;;;;9.50;2.00;;;;;;;;;;5023202;28;20404;-69
2023/08/09 04:00:18;;;;;;;9.40;2.00;;;;;;;;;;5021003;28;20436;-71
2023/08/09 04:02:47;;;;;;;8.52;2.17;;;;;;;;;;5002596;28;20043;-70
2023/08/09 04:05:16;;;;;;;8.65;1.95;;;;;;;;;;5016565;28;20044;-70
2023/08/09 04:07:42;;;;;;;8.52;2.00;;;;;;;;;;5016572;28;20025;-70
2023/08/09 04:10:09;;;;;;;7.82;2.13;;;;;;;;;;5017452;28;20117;-70
2023/08/09 04:12:35;;;;;;;7.80;2.25;;;;;;;;;;5016780;28;20478;-70
2023/08/09 04:15:03;;;;;;;7.35;2.05;;;;;;;;;;5017674;28;20021;-70
2023/08/09 04:17:31;;;;;;;7.65;2.00;;;;;;;;;;5022176;28;20108;-69
2023/08/09 04:19:57;;;;;;;8.20;1.75;;;;;;;;;;5000872;28;20426;-70
2023/08/09 04:22:23;;;;;;;8.40;2.10;;;;;;;;;;5019569;28;20054;-69
2023/08/09 04:24:50;;;;;;;8.40;2.00;;;;;;;;;;5020381;28;20412;-70
2023/08/09 04:27:16;;;;;;;8.77;2.20;;;;;;;;;;5003816;28;20451;-70
2023/08/09 04:29:42;;;;;;;8.00;2.03;;;;;;;;;;5007108;28;20178;-69
2023/08/09 04:32:09;;;;;;;8.73;2.60;;;;;;;;;;5018980;28;20043;-70
2023/08/09 04:34:35;;;;;;;7.40;2.10;;;;;;;;;;5020996;28;20049;-69
2023/08/09 04:37:01;;;;;;;8.77;2.40;;;;;;;;;;5016512;28;20037;-70
2023/08/09 04:39:27;;;;;;;9.70;2.50;;;;;;;;;;5021357;28;20874;-70
2023/08/09 04:41:53;;;;;;;8.90;2.50;;;;;;;;;;4999297;28;20348;-70
2023/08/09 04:44:20;;;;;;;10.80;2.58;;;;;;;;;;5004170;28;20028;-70
2023/08/09 04:46:46;;;;;;;10.02;2.42;;;;;;;;;;5004813;28;20466;-69
2023/08/09 04:49:12;;;;;;;8.43;2.63;;;;;;;;;;5019303;28;20029;-70
2023/08/09 04:51:40;;;;;;;7.55;2.13;;;;;;;;;;5021629;28;20538;-69
2023/08/09 04:54:06;;;;;;;8.02;1.90;;;;;;;;;;5015501;28;20032;-70
2023/08/09 04:56:32;;;;;;;8.05;1.92;;;;;;;;;;5017763;28;20079;-70
2023/08/09 04:58:59;;;;;;;7.93;2.22;;;;;;;;;;5020084;28;20025;-71
2023/08/09 05:01:25;;;;;;;9.05;2.00;;;;;;;;;;5022003;28;20670;-70
2023/08/09 05:03:51;;;;;;;9.95;2.60;;;;;;;;;;5014593;28;20049;-70
2023/08/09 05:06:17;;;;;;;10.60;2.42;;;;;;;;;;5021403;28;20153;-70
2023/08/09 05:08:44;;;;;;;9.27;2.55;;;;;;;;;;5019454;28;20636;-70
2023/08/09 05:11:11;;;;;;;7.30;1.90;;;;;;;;;;4995818;28;20160;-70
2023/08/09 05:13:37;;;;;;;8.65;2.25;;;;;;;;;;5020118;28;20068;-70
2023/08/09 05:16:03;;;;;;;8.93;2.38;;;;;;;;;;5000027;28;20033;-69
2023/08/09 05:18:29;;;;;;;7.03;1.70;;;;;;;;;;5021006;28;20408;-69
2023/08/09 05:20:56;;;;;;;7.47;2.03;;;;;;;;;;5016886;28;20277;-70
2023/08/09 05:23:22;;;;;;;9.55;2.45;;;;;;;;;;5001588;28;20079;-69
2023/08/09 05:25:48;;;;;;;10.20;2.13;;;;;;;;;;5021358;28;20071;-70
2023/08/09 05:28:14;;;;;;;8.77;2.30;;;;;;;;;;5018593;28;20056;-70
2023/08/09 05:30:40;;;;;;;8.45;2.33;;;;;;;;;;5020232;28;20044;-71
2023/08/09 05:33:06;;;;;;;8.88;2.40;;;;;;;;;;5015922;28;20104;-70
2023/08/09 05:35:33;;;;;;;8.85;2.33;;;;;;;;;;5001537;28;20495;-70
2023/08/09 05:37:59;;;;;;;10.55;2.25;;;;;;;;;;5019132;28;20364;-69
2023/08/09 05:40:25;;;;;;;10.18;2.40;;;;;;;;;;5000241;28;20112;-69
2023/08/09 05:42:51;;;;;;;10.07;2.53;;;;;;;;;;5017753;28;20061;-68
2023/08/09 05:45:18;;;;;;;8.18;2.00;;;;;;;;;;5018580;28;20254;-69
2023/08/09 05:47:44;;;;;;;12.70;3.10;;;;;;;;;;5019791;28;20491;-69
2023/08/09 05:50:10;;;;;;;10.95;3.00;;;;;;;;;;5022328;28;20899;-70
2023/08/09 05:52:37;;;;;;;11.23;3.20;;;;;;;;;;5017404;28;20337;-70
2023/08/09 05:55:03;;;;;;;15.25;3.40;;;;;;;;;;5018591;28;20538;-70
2023/08/09 05:57:29;;;;;;;11.52;3.45;;;;;;;;;;5004390;28;20017;-69
2023/08/09 05:59:55;;;;;;;13.73;3.42;;;;;;;;;;5019589;28;20029;-69
2023/08/09 06:02:22;;;;;;;11.32;2.70;;;;;;;;;;5000614;28;20021;-70
2023/08/09 06:04:49;;;;;;;12.10;3.38;;;;;;;;;;5024707;28;20534;-70
2023/08/09 06:07:15;;;;;;;12.55;3.22;;;;;;;;;;5018990;28;20377;-72
2023/08/09 06:09:41;;;;;;;11.77;2.83;;;;;;;;;;5021766;28;20033;-70
2023/08/09 06:12:07;;;;;;;12.82;3.13;;;;;;;;;;5017533;28;20115;-69
2023/08/09 06:14:33;;;;;;;12.88;3.30;;;;;;;;;;5002405;28;20025;-69
2023/08/09 06:17:00;;;;;;;8.35;2.75;;;;;;;;;;5022037;28;20380;-70
2023/08/09 06:19:26;;;;;;;12.15;3.00;;;;;;;;;;5015575;28;20056;-69
2023/08/09 06:21:52;;;;;;;10.77;2.80;;;;;;;;;;5020962;28;20025;-69
2023/08/09 06:24:18;;;;;;;8.63;2.58;;;;;;;;;;5003288;28;20025;-69
2023/08/09 06:26:44;;;;;;;10.88;2.47;;;;;;;;;;5015595;28;20033;-70
2023/08/09 06:29:10;;;;;;;10.73;3.13;;;;;;;;;;5016160;28;21561;-70
2023/08/09 06:31:37;;;;;;;10.02;2.83;;;;;;;;;;5019863;28;20255;-70
2023/08/09 06:34:03;;;;;;;9.48;2.50;;;;;;;;;;5017919;28;20041;-70
2023/08/09 06:36:29;;;;;;;12.57;3.17;;;;;;;;;;5016634;28;20106;-69
2023/08/09 06:38:55;;;;;;;10.35;2.88;;;;;;;;;;5014941;28;20427;-70
2023/08/09 06:41:21;;;;;;;10.68;2.95;;;;;;;;;;5017732;28;20534;-70
2023/08/09 06:43:47;;;;;;;10.40;3.38;;;;;;;;;;5020530;28;20036;-70
2023/08/09 06:46:14;;;;;;;10.45;3.20;;;;;;;;;;5003313;28;20033;-70
2023/08/09 06:48:40;;;;;;;10.45;3.50;;;;;;;;;;5021509;28;20443;-70
2023/08/09 06:51:06;;;;;;;10.13;3.65;;;;;;;;;;5017853;28;20025;-69
2023/08/09 06:53:32;;;;;;;11.85;2.72;;;;;;;;;;5015938;28;20032;-70
2023/08/09 06:55:58;;;;;;;10.27;2.55;;;;;;;;;;4997846;28;20053;-69
2023/08/09 06:58:24;;;;;;;11.63;3.20;;;;;;;;;;5019189;28;20026;-70
2023/08/09 07:00:51;;;;;;;12.30;3.00;;;;;;;;;;5019178;28;20038;-70
2023/08/09 07:03:18;;;;;;;10.23;2.70;;;;;;;;;;5007496;28;20459;-70
2023/08/09 07:05:44;;;;;;;8.55;2.60;;;;;;;;;;5022748;28;20064;-69
2023/08/09 07:08:10;;;;;;;10.93;3.15;;;;;;;;;;5000589;28;20041;-69
2023/08/09 07:10:36;;;;;;;10.45;2.63;;;;;;;;;;5021393;28;20029;-69
2023/08/09 07:13:02;;;;;;;10.25;3.17;;;;;;;;;;5018146;28;20033;-69
2023/08/09 07:15:29;;;;;;;9.98;3.38;;;;;;;;;;5023302;28;20048;-69
2023/08/09 07:17:55;;;;;;;10.50;2.83;;;;;;;;;;5018472;28;20024;-71
2023/08/09 07:20:21;;;;;;;10.77;2.80;;;;;;;;;;5023329;28;20523;-69
2023/08/09 07:22:47;;;;;;;9.23;2.40;;;;;;;;;;5001506;28;20064;-69
2023/08/09 07:25:14;;;;;;;9.35;2.50;;;;;;;;;;5018376;28;20029;-69
2023/08/09 07:27:44;;;;;;;10.25;2.58;;;;;;;;;;5023415;28;20219;-69
2023/08/09 07:30:11;;;;;;;9.43;2.15;;;;;;;;;;5020746;28;22048;-69
2023/08/09 07:32:38;;;;;;;9.85;2.25;;;;;;;;;;5004289;28;20044;-70
2023/08/09 07:35:05;;;;;;;8.57;2.50;;;;;;;;;;5019135;28;20063;-70
2023/08/09 07:37:32;;;;;;;10.13;2.42;;;;;;;;;;5019037;28;20059;-70
2023/08/09 07:39:58;;;;;;;9.07;2.58;;;;;;;;;;5016802;28;20037;-70
2023/08/09 07:42:24;;;;;;;8.07;1.90;;;;;;;;;;5022065;28;20237;-69
2023/08/09 07:44:51;;;;;;;8.73;2.25;;;;;;;;;;5019632;28;20137;-70
2023/08/09 07:47:17;;;;;;;8.20;2.25;;;;;;;;;;5023692;28;20101;-70
2023/08/09 07:49:43;;;;;;;9.40;2.22;;;;;;;;;;5018811;28;20048;-70
2023/08/09 07:52:09;;;;;;;9.55;2.10;;;;;;;;;;5018957;28;20030;-71
2023/08/09 07:54:36;;;;;;;9.15;2.25;;;;;;;;;;5019375;28;20025;-70
2023/08/09 07:57:02;;;;;;;7.68;2.15;;;;;;;;;;5021173;28;20036;-70
2023/08/09 07:59:28;;;;;;;7.78;2.00;;;;;;;;;;5022668;28;20410;-70
2023/08/09 08:01:54;;;;;;;8.93;2.00;;;;;;;;;;5001193;28;20033;-70
2023/08/09 08:04:20;;;;;;;10.75;2.33;;;;;;;;;;5021770;28;20044;-70
2023/08/09 08:06:48;;;;;;;7.38;1.75;;;;;;;;;;5020309;28;20087;-70
2023/08/09 08:09:14;;;;;;;10.05;1.85;;;;;;;;;;5018020;28;20611;-70
2023/08/09 08:11:41;;;;;;;10.13;2.00;;;;;;;;;;5022607;28;20379;-70
2023/08/09 08:14:10;;;;;;;9.50;2.28;;;;;;;;;;5016518;28;20119;-70
2023/08/09 08:16:37;;;;;;;8.32;2.10;;;;;;;;;;5020582;28;20025;-70
2023/08/09 08:19:04;;;;;;;7.30;2.03;;;;;;;;;;5019724;28;20617;-70
2023/08/09 08:21:30;;;;;;;8.55;1.98;;;;;;;;;;5022260;28;20404;-70
2023/08/09 08:23:56;;;;;;;10.77;2.22;;;;;;;;;;4999878;28;20893;-71
2023/08/09 08:26:23;;;;;;;8.73;2.10;;;;;;;;;;5022354;28;20033;-69
2023/08/09 08:28:49;;;;;;;10.02;2.08;;;;;;;;;;5023741;28;20464;-72
2023/08/09 08:31:19;;;;;;;8.98;2.22;;;;;;;;;;5002815;28;20036;-70
2023/08/09 08:33:51;;;;;;;10.20;1.90;;;;;;;;;;5026842;28;20045;-70
2023/08/09 08:36:17;;;;;;;6.78;1.70;;;;;;;;;;5019646;28;20030;-71
2023/08/09 08:38:43;;;;;;;12.60;2.28;;;;;;;;;;5005192;28;20037;-70
2023/08/09 08:41:10;;;;;;;8.48;1.98;;;;;;;;;;5024780;28;20761;-71
2023/08/09 08:43:37;;;;;;;9.32;2.08;;;;;;;;;;5024622;28;20040;-71
2023/08/09 08:46:07;;;;;;;11.05;2.35;;;;;;;;;;5025257;28;20391;-71
2023/08/09 08:48:33;;;;;;;8.50;2.13;;;;;;;;;;5025645;28;20075;-71
2023/08/09 08:51:02;;;;;;;7.53;1.90;;;;;;;;;;5005618;28;20032;-71
2023/08/09 08:53:28;;;;;;;8.18;1.70;;;;;;;;;;5027570;28;20107;-71
2023/08/09 08:55:55;;;;;;;9.35;2.03;;;;;;;;;;5004588;28;20040;-71
2023/08/09 08:58:21;;;;;;;9.98;1.95;;;;;;;;;;5006780;28;20083;-70
2023/08/09 09:00:48;;;;;;;9.73;2.30;;;;;;;;;;5025889;28;20035;-70
2023/08/09 09:03:14;;;;;;;8.98;2.10;;;;;;;;;;5003896;28;20040;-70
2023/08/09 09:05:40;;;;;;;8.02;1.80;;;;;;;;;;5021164;28;20498;-70
2023/08/09 09:08:06;;;;;;;8.65;2.10;;;;;;;;;;5024379;28;20483;-71
2023/08/09 09:10:33;;;;;;;8.32;2.17;;;;;;;;;;5023007;28;20491;-70
2023/08/09 09:12:59;;;;;;;9.10;2.10;;;;;;;;;;5024436;28;20039;-71
2023/08/09 09:15:26;;;;;;;8.55;2.00;;;;;;;;;;5004594;28;20106;-70
2023/08/09 09:17:53;;;;;;;8.55;2.00;;;;;;;;;;5020246;28;20472;-70
2023/08/09 09:20:24;;;;;;;7.97;1.90;;;;;;;;;;5021328;28;20345;-72
2023/08/09 09:22:51;;;;;;;12.25;2.35;;;;;;;;;;5022177;28;20479;-72
2023/08/09 09:25:17;;;;;;;7.35;1.90;;;;;;;;;;5022059;28;20579;-72
2023/08/09 09:27:46;;;;;;;10.18;2.15;;;;;;;;;;5026337;28;20785;-71
2023/08/09 09:30:13;;;;;;;8.23;1.95;;;;;;;;;;5005920;28;20488;-72
2023/08/09 09:32:41;;;;;;;9.95;2.17;;;;;;;;;;5022624;28;20025;-71
2023/08/09 09:35:08;;;;;;;7.57;1.80;;;;;;;;;;5023818;28;20055;-71
2023/08/09 09:37:36;;;;;;;7.95;1.70;;;;;;;;;;5007238;28;20565;-71
2023/08/09 09:40:02;;;;;;;8.98;2.17;;;;;;;;;;5002260;28;20358;-71
2023/08/09 09:42:32;;;;;;;8.63;2.10;;;;;;;;;;5020556;28;20029;-71
2023/08/09 09:45:05;;;;;;;9.50;2.28;;;;;;;;;;5016993;28;20048;-71
2023/08/09 09:47:38;;;;;;;7.35;1.67;;;;;;;;;;5023285;28;20486;-71
2023/08/09 09:50:07;;;;;;;9.32;2.00;;;;;;;;;;5020427;28;20391;-72
2023/08/09 09:52:34;;;;;;;9.38;2.00;;;;;;;;;;5006462;28;20441;-71
2023/08/09 09:55:03;;;;;;;6.80;1.88;;;;;;;;;;5021644;28;20427;-70
2023/08/09 09:57:29;;;;;;;8.25;2.00;;;;;;;;;;5023801;28;20370;-71
2023/08/09 09:59:59;;;;;;;7.38;1.95;;;;;;;;;;5017819;28;20033;-71
2023/08/09 10:02:33;;;;;;;7.45;2.10;;;;;;;;;;5021509;28;20067;-71
2023/08/09 10:05:03;;;;;;;7.28;1.88;;;;;;;;;;5020535;28;20033;-70
2023/08/09 10:07:31;;;;;;;9.55;2.25;;;;;;;;;;5022673;28;20330;-70
2023/08/09 10:10:02;;;;;;;8.80;2.15;;;;;;;;;;5018055;28;20116;-71
2023/08/09 10:12:28;;;;;;;7.65;2.20;;;;;;;;;;5006519;28;20116;-71
2023/08/09 10:14:55;;;;;;;8.63;2.10;;;;;;;;;;5015861;28;20037;-71
2023/08/09 10:17:22;;;;;;;6.32;1.90;;;;;;;;;;5022318;28;20099;-71
2023/08/09 10:19:49;;;;;;;8.07;1.75;;;;;;;;;;5020858;28;20036;-71
2023/08/09 10:22:18;;;;;;;8.02;1.88;;;;;;;;;;5020474;28;20104;-72
2023/08/09 10:24:47;;;;;;;7.90;1.95;;;;;;;;;;5022209;28;20089;-72
2023/08/09 10:27:14;;;;;;;8.88;1.92;;;;;;;;;;5019264;28;20118;-72
2023/08/09 10:29:43;;;;;;;6.93;1.80;;;;;;;;;;5019869;28;20024;-70
2023/08/09 10:32:09;;;;;;;10.63;2.00;;;;;;;;;;5019570;28;20033;-72
2023/08/09 10:34:35;;;;;;;7.28;1.80;;;;;;;;;;5017670;28;20050;-71
2023/08/09 10:37:02;;;;;;;8.13;2.10;;;;;;;;;;5017002;28;20063;-72
2023/08/09 10:39:30;;;;;;;9.38;1.83;;;;;;;;;;5022719;28;21045;-71
2023/08/09 10:41:57;;;;;;;9.10;1.70;;;;;;;;;;5018606;28;20022;-72
2023/08/09 10:44:39;;;;;;;6.35;1.73;;;;;;;;;;5026293;28;20552;-72
2023/08/09 10:47:08;;;;;;;10.00;2.05;;;;;;;;;;5003744;28;20022;-72
2023/08/09 10:49:44;;;;;;;6.85;1.75;;;;;;;;;;5004485;28;20102;-73
2023/08/09 10:52:34;;;;;;;6.43;1.65;;;;;;;;;;5020157;28;21072;-72
2023/08/09 10:55:26;;;;;;;8.60;2.10;;;;;;;;;;5009193;28;20463;-73
2023/08/09 10:57:54;;;;;;;8.13;1.95;;;;;;;;;;5016981;28;20041;-70
2023/08/09 11:00:21;;;;;;;6.65;1.90;;;;;;;;;;5023502;28;20029;-71
2023/08/09 11:02:48;;;;;;;6.28;1.50;;;;;;;;;;5024993;28;20037;-72
2023/08/09 11:05:14;;;;;;;7.80;1.80;;;;;;;;;;5020213;28;20036;-72
2023/08/09 11:07:47;;;;;;;8.40;1.95;;;;;;;;;;5019397;28;20083;-72
2023/08/09 11:10:13;;;;;;;11.18;2.00;;;;;;;;;;5018293;28;20030;-71
2023/08/09 11:12:42;;;;;;;8.50;1.67;;;;;;;;;;5020807;28;20030;-71
2023/08/09 11:15:08;;;;;;;8.13;1.92;;;;;;;;;;5020493;28;20442;-71
2023/08/09 11:17:36;;;;;;;7.15;1.83;;;;;;;;;;5021886;28;20335;-71
2023/08/09 11:20:11;;;;;;;8.45;1.77;;;;;;;;;;5021349;28;20032;-70
2023/08/09 11:22:37;;;;;;;6.82;1.58;;;;;;;;;;5021005;28;20787;-71
2023/08/09 11:25:06;;;;;;;8.43;1.65;;;;;;;;;;5004416;28;20037;-71
2023/08/09 11:27:33;;;;;;;6.70;1.70;;;;;;;;;;5022575;28;20033;-71
2023/08/09 11:30:00;;;;;;;11.00;1.75;;;;;;;;;;5018056;28;20029;-72
2023/08/09 11:32:31;;;;;;;6.35;1.80;;;;;;;;;;5021895;28;20067;-71
2023/08/09 11:34:57;;;;;;;6.47;1.92;;;;;;;;;;4996947;28;20603;-72
2023/08/09 11:37:25;;;;;;;8.45;2.33;;;;;;;;;;5019773;28;20574;-71
2023/08/09 11:39:51;;;;;;;8.93;2.05;;;;;;;;;;5019056;28;20029;-71
2023/08/09 11:42:17;;;;;;;8.02;1.80;;;;;;;;;;5020802;28;20127;-71
2023/08/09 11:44:44;;;;;;;8.52;2.30;;;;;;;;;;5020527;28;20363;-71
2023/08/09 11:47:10;;;;;;;7.55;2.13;;;;;;;;;;5013526;28;20188;-72
2023/08/09 11:49:37;;;;;;;7.82;2.08;;;;;;;;;;5000533;28;20099;-71
2023/08/09 11:52:03;;;;;;;9.50;2.13;;;;;;;;;;5016726;28;20029;-71
2023/08/09 11:54:30;;;;;;;6.18;1.80;;;;;;;;;;5016292;28;20030;-72
2023/08/09 11:56:58;;;;;;;7.00;2.10;;;;;;;;;;5001844;28;20041;-72
2023/08/09 11:59:25;;;;;;;9.60;2.03;;;;;;;;;;5018851;28;20471;-72
2023/08/09 12:01:57;;;;;;;10.15;1.73;;;;;;;;;;5020245;28;20031;-72
2023/08/09 12:04:25;;;;;;;6.85;1.70;;;;;;;;;;5003021;28;20124;-71
2023/08/09 12:06:55;;;;;;;8.27;1.90;;;;;;;;;;5020563;28;20045;-71
2023/08/09 12:09:32;;;;;;;10.40;1.98;;;;;;;;;;5025155;28;20028;-71
2023/08/09 12:12:04;;;;;;;10.05;2.08;;;;;;;;;;5019856;28;20033;-71
2023/08/09 12:14:30;;;;;;;10.88;2.35;;;;;;;;;;5020913;28;20073;-71
2023/08/09 12:16:56;;;;;;;11.27;2.20;;;;;;;;;;5022745;28;20033;-72
2023/08/09 12:19:23;;;;;;;11.52;2.70;;;;;;;;;;5019740;28;20030;-72
2023/08/09 12:21:49;;;;;;;9.10;2.47;;;;;;;;;;4997573;28;20029;-72
2023/08/09 12:24:15;;;;;;;9.55;2.30;;;;;;;;;;5005421;28;21134;-72
2023/08/09 12:26:41;;;;;;;9.32;2.30;;;;;;;;;;5008107;28;20034;-72
2023/08/09 12:29:11;;;;;;;7.85;2.10;;;;;;;;;;5005531;28;20550;-72
2023/08/09 12:31:38;;;;;;;9.13;2.13;;;;;;;;;;5011731;28;20698;-72
2023/08/09 12:34:04;;;;;;;7.20;1.85;;;;;;;;;;5009071;28;20089;-72
2023/08/09 12:36:31;;;;;;;8.10;2.25;;;;;;;;;;5012193;28;20028;-71
2023/08/09 12:38:57;;;;;;;9.55;2.35;;;;;;;;;;5009332;28;20040;-71
2023/08/09 12:41:24;;;;;;;9.38;2.65;;;;;;;;;;5012309;28;20572;-71
2023/08/09 12:43:50;;;;;;;8.00;2.10;;;;;;;;;;5010650;28;20032;-74
2023/08/09 12:46:17;;;;;;;12.70;2.28;;;;;;;;;;4976515;28;20115;-71
2023/08/09 12:48:43;;;;;;;9.55;2.03;;;;;;;;;;5010187;28;20083;-73
2023/08/09 12:51:09;;;;;;;9.15;2.15;;;;;;;;;;4987254;28;20583;-73
2023/08/09 12:53:37;;;;;;;6.85;2.08;;;;;;;;;;4995813;28;20110;-72
2023/08/09 12:56:03;;;;;;;8.43;2.30;;;;;;;;;;5006584;28;20072;-74
2023/08/09 12:58:29;;;;;;;7.45;2.20;;;;;;;;;;5011513;28;20026;-74
2023/08/09 13:00:55;;;;;;;9.88;2.25;;;;;;;;;;5006545;28;20110;-72
2023/08/09 13:03:21;;;;;;;10.48;2.45;;;;;;;;;;5010250;28;20772;-73
2023/08/09 13:05:48;;;;;;;9.63;2.58;;;;;;;;;;5009109;28;20611;-71
2023/08/09 13:08:14;;;;;;;7.70;2.25;;;;;;;;;;5007218;28;20032;-71
2023/08/09 13:10:41;;;;;;;8.18;2.00;;;;;;;;;;5008712;28;20262;-71
2023/08/09 13:13:07;;;;;;;10.20;3.00;;;;;;;;;;5007622;28;21107;-73
2023/08/09 13:15:33;;;;;;;8.75;2.20;;;;;;;;;;5008970;28;20262;-71
2023/08/09 13:17:59;;;;;;;8.23;2.08;;;;;;;;;;5009129;28;20065;-72
2023/08/09 13:20:28;;;;;;;9.43;2.45;;;;;;;;;;5010862;28;20037;-72
2023/08/09 13:22:54;;;;;;;8.57;2.20;;;;;;;;;;5009387;28;20032;-71
2023/08/09 13:25:20;;;;;;;7.93;2.38;;;;;;;;;;5009674;28;20199;-71
2023/08/09 13:27:46;;;;;;;10.98;2.95;;;;;;;;;;5010522;28;20110;-71
2023/08/09 13:30:13;;;;;;;8.88;2.30;;;;;;;;;;5005538;28;20067;-71
2023/08/09 13:32:39;;;;;;;7.43;2.00;;;;;;;;;;5012973;28;20028;-71
2023/08/09 13:35:07;;;;;;;12.82;1.98;;;;;;;;;;5004900;28;20553;-71
2023/08/09 13:37:33;;;;;;;8.45;2.08;;;;;;;;;;5010510;28;20036;-71
2023/08/09 13:39:59;;;;;;;7.00;2.10;;;;;;;;;;5006586;28;20395;-70
2023/08/09 13:42:25;;;;;;;8.52;2.20;;;;;;;;;;5009180;28;20437;-71
2023/08/09 13:44:52;;;;;;;7.18;2.17;;;;;;;;;;5008597;28;20538;-71
2023/08/09 13:47:18;;;;;;;6.05;1.67;;;;;;;;;;5009630;28;20036;-72
2023/08/09 13:49:44;;;;;;;7.97;1.98;;;;;;;;;;5010834;28;20037;-72
2023/08/09 13:52:10;;;;;;;8.25;2.10;;;;;;;;;;5010476;28;20499;-70
2023/08/09 13:54:36;;;;;;;11.25;2.42;;;;;;;;;;5012888;28;20049;-70
2023/08/09 13:57:03;;;;;;;8.25;2.20;;;;;;;;;;5006430;28;20021;-70
2023/08/09 13:59:29;;;;;;;9.43;2.60;;;;;;;;;;4995117;28;20029;-70
2023/08/09 14:01:55;;;;;;;8.18;2.10;;;;;;;;;;5010899;28;20170;-70
2023/08/09 14:04:21;;;;;;;9.13;2.47;;;;;;;;;;5008751;28;20331;-71
2023/08/09 14:06:47;;;;;;;8.27;2.08;;;;;;;;;;5009350;28;20124;-71
2023/08/09 14:09:13;;;;;;;8.88;2.20;;;;;;;;;;5006432;28;20162;-70
2023/08/09 14:11:40;;;;;;;8.55;2.03;;;;;;;;;;5010032;28;20029;-71
2023/08/09 14:14:06;;;;;;;8.73;2.10;;;;;;;;;;5006399;28;20036;-71
2023/08/09 14:16:32;;;;;;;7.32;2.08;;;;;;;;;;4995108;28;20071;-71
2023/08/09 14:18:58;;;;;;;6.88;2.00;;;;;;;;;;5005732;28;20029;-73
2023/08/09 14:21:24;;;;;;;9.45;2.38;;;;;;;;;;5011988;28;20872;-72
2023/08/09 14:23:50;;;;;;;7.80;2.50;;;;;;;;;;5014091;28;20037;-71
2023/08/09 14:26:17;;;;;;;6.78;1.90;;;;;;;;;;5008861;28;20371;-71
2023/08/09 14:28:43;;;;;;;8.07;2.38;;;;;;;;;;5010053;28;20029;-72
2023/08/09 14:31:09;;;;;;;7.15;1.95;;;;;;;;;;4988741;28;20033;-72
2023/08/09 14:33:35;;;;;;;6.88;1.80;;;;;;;;;;5010137;28;20049;-73
2023/08/09 14:36:02;;;;;;;7.72;1.80;;;;;;;;;;5007966;28;20036;-71
2023/08/09 14:38:28;;;;;;;8.38;2.17;;;;;;;;;;5010173;28;20970;-72
2023/08/09 14:40:54;;;;;;;9.35;1.95;;;;;;;;;;5009685;28;20672;-73